sensor_id;sensor_type;location;lat;lon;timestamp;P1;durP1;ratioP1;P2;durP2;ratioP2
46282;SDS011;32017;43.700;11.820;2024-02-21T00:01:16;53.17;;;49.23;;
46282;SDS011;32017;43.700;11.820;2024-02-21T00:03:18;48.70;;;45.53;;
46282;SDS011;32017;43.700;11.820;2024-02-21T00:05:21;43.42;;;40.78;;
46282;SDS011;32017;43.700;11.820;2024-02-21T00:07:22;49.80;;;45.73;;
46282;SDS011;32017;43.700;11.820;2024-02-21T00:09:24;52.40;;;47.38;;
46282;SDS011;32017;43.700;11.820;2024-02-21T00:11:26;52.63;;;48.40;;
46282;SDS011;32017;43.700;11.820;2024-02-21T00:13:27;51.87;;;47.60;;
46282;SDS011;32017;43.700;11.820;2024-02-21T00:15:29;53.73;;;49.67;;
46282;SDS011;32017;43.700;11.820;2024-02-21T00:17:31;45.33;;;42.15;;
46282;SDS011;32017;43.700;11.820;2024-02-21T00:19:32;44.63;;;41.73;;
46282;SDS011;32017;43.700;11.820;2024-02-21T00:21:34;47.80;;;44.47;;
46282;SDS011;32017;43.700;11.820;2024-02-21T00:23:36;46.58;;;43.28;;
46282;SDS011;32017;43.700;11.820;2024-02-21T00:25:37;46.73;;;43.67;;
46282;SDS011;32017;43.700;11.820;2024-02-21T00:27:40;46.17;;;42.92;;
46282;SDS011;32017;43.700;11.820;2024-02-21T00:29:42;49.10;;;45.97;;
46282;SDS011;32017;43.700;11.820;2024-02-21T00:31:43;46.58;;;43.78;;
46282;SDS011;32017;43.700;11.820;2024-02-21T00:35:47;43.08;;;40.60;;
46282;SDS011;32017;43.700;11.820;2024-02-21T00:37:49;45.95;;;43.17;;
46282;SDS011;32017;43.700;11.820;2024-02-21T00:39:50;47.00;;;43.80;;
46282;SDS011;32017;43.700;11.820;2024-02-21T00:41:52;45.38;;;42.40;;
46282;SDS011;32017;43.700;11.820;2024-02-21T00:43:54;47.50;;;44.35;;
46282;SDS011;32017;43.700;11.820;2024-02-21T00:45:56;47.67;;;44.47;;
46282;SDS011;32017;43.700;11.820;2024-02-21T00:47:58;45.75;;;43.03;;
46282;SDS011;32017;43.700;11.820;2024-02-21T00:50:00;43.65;;;40.92;;
46282;SDS011;32017;43.700;11.820;2024-02-21T00:52:01;38.83;;;36.97;;
46282;SDS011;32017;43.700;11.820;2024-02-21T00:54:03;38.92;;;37.17;;
46282;SDS011;32017;43.700;11.820;2024-02-21T00:56:05;42.00;;;40.17;;
46282;SDS011;32017;43.700;11.820;2024-02-21T00:58:07;36.08;;;34.58;;
46282;SDS011;32017;43.700;11.820;2024-02-21T01:00:08;40.53;;;38.70;;
46282;SDS011;32017;43.700;11.820;2024-02-21T01:02:10;38.72;;;37.03;;
46282;SDS011;32017;43.700;11.820;2024-02-21T01:04:12;36.60;;;34.60;;
46282;SDS011;32017;43.700;11.820;2024-02-21T01:06:14;38.30;;;36.28;;
46282;SDS011;32017;43.700;11.820;2024-02-21T01:08:15;48.20;;;44.93;;
46282;SDS011;32017;43.700;11.820;2024-02-21T01:10:17;47.97;;;44.75;;
46282;SDS011;32017;43.700;11.820;2024-02-21T01:12:19;50.20;;;46.63;;
46282;SDS011;32017;43.700;11.820;2024-02-21T01:14:21;46.93;;;43.87;;
46282;SDS011;32017;43.700;11.820;2024-02-21T01:16:22;45.38;;;42.60;;
46282;SDS011;32017;43.700;11.820;2024-02-21T01:18:24;45.93;;;42.97;;
46282;SDS011;32017;43.700;11.820;2024-02-21T01:20:26;44.78;;;42.17;;
46282;SDS011;32017;43.700;11.820;2024-02-21T01:22:27;45.65;;;42.70;;
46282;SDS011;32017;43.700;11.820;2024-02-21T01:26:31;46.05;;;43.28;;
46282;SDS011;32017;43.700;11.820;2024-02-21T01:28:33;44.33;;;41.37;;
46282;SDS011;32017;43.700;11.820;2024-02-21T01:30:35;48.70;;;45.40;;
46282;SDS011;32017;43.700;11.820;2024-02-21T01:32:37;44.10;;;41.40;;
46282;SDS011;32017;43.700;11.820;2024-02-21T01:34:38;45.83;;;42.77;;
46282;SDS011;32017;43.700;11.820;2024-02-21T01:36:40;43.60;;;40.63;;
46282;SDS011;32017;43.700;11.820;2024-02-21T01:38:43;46.20;;;43.40;;
46282;SDS011;32017;43.700;11.820;2024-02-21T01:40:44;41.08;;;38.75;;
46282;SDS011;32017;43.700;11.820;2024-02-21T01:42:46;44.88;;;42.13;;
46282;SDS011;32017;43.700;11.820;2024-02-21T01:46:50;41.92;;;39.63;;
46282;SDS011;32017;43.700;11.820;2024-02-21T01:50:55;40.40;;;38.40;;
46282;SDS011;32017;43.700;11.820;2024-02-21T01:54:59;40.10;;;38.10;;
46282;SDS011;32017;43.700;11.820;2024-02-21T01:57:01;39.95;;;37.95;;
46282;SDS011;32017;43.700;11.820;2024-02-21T01:59:03;40.43;;;38.63;;
46282;SDS011;32017;43.700;11.820;2024-02-21T02:01:05;39.17;;;37.63;;
46282;SDS011;32017;43.700;11.820;2024-02-21T02:03:09;39.17;;;37.20;;
46282;SDS011;32017;43.700;11.820;2024-02-21T02:05:11;42.88;;;40.47;;
46282;SDS011;32017;43.700;11.820;2024-02-21T02:07:13;45.58;;;43.00;;
46282;SDS011;32017;43.700;11.820;2024-02-21T02:09:15;40.83;;;38.72;;
46282;SDS011;32017;43.700;11.820;2024-02-21T02:11:17;40.10;;;38.40;;
46282;SDS011;32017;43.700;11.820;2024-02-21T02:13:18;45.13;;;42.53;;
46282;SDS011;32017;43.700;11.820;2024-02-21T02:15:20;49.07;;;46.03;;
46282;SDS011;32017;43.700;11.820;2024-02-21T02:17:22;44.53;;;41.90;;
46282;SDS011;32017;43.700;11.820;2024-02-21T02:19:23;44.60;;;42.27;;
46282;SDS011;32017;43.700;11.820;2024-02-21T02:21:29;44.67;;;42.17;;
46282;SDS011;32017;43.700;11.820;2024-02-21T02:23:32;44.97;;;42.47;;
46282;SDS011;32017;43.700;11.820;2024-02-21T02:25:38;40.13;;;38.10;;
46282;SDS011;32017;43.700;11.820;2024-02-21T02:27:44;44.55;;;42.05;;
46282;SDS011;32017;43.700;11.820;2024-02-21T02:29:46;44.00;;;41.60;;
46282;SDS011;32017;43.700;11.820;2024-02-21T02:31:48;47.17;;;44.75;;
46282;SDS011;32017;43.700;11.820;2024-02-21T02:33:50;43.58;;;41.28;;
46282;SDS011;32017;43.700;11.820;2024-02-21T02:35:52;43.35;;;40.85;;
46282;SDS011;32017;43.700;11.820;2024-02-21T02:37:54;45.10;;;42.43;;
46282;SDS011;32017;43.700;11.820;2024-02-21T02:39:56;45.25;;;42.85;;
46282;SDS011;32017;43.700;11.820;2024-02-21T02:41:58;45.38;;;42.83;;
46282;SDS011;32017;43.700;11.820;2024-02-21T02:43:59;44.63;;;42.17;;
46282;SDS011;32017;43.700;11.820;2024-02-21T02:46:01;43.40;;;41.07;;
46282;SDS011;32017;43.700;11.820;2024-02-21T02:48:03;45.55;;;42.95;;
46282;SDS011;32017;43.700;11.820;2024-02-21T02:50:06;46.47;;;43.97;;
46282;SDS011;32017;43.700;11.820;2024-02-21T02:52:08;46.38;;;43.65;;
46282;SDS011;32017;43.700;11.820;2024-02-21T02:54:10;46.43;;;43.53;;
46282;SDS011;32017;43.700;11.820;2024-02-21T02:56:15;46.30;;;43.53;;
46282;SDS011;32017;43.700;11.820;2024-02-21T02:58:17;45.67;;;43.30;;
46282;SDS011;32017;43.700;11.820;2024-02-21T03:00:19;45.20;;;42.43;;
46282;SDS011;32017;43.700;11.820;2024-02-21T03:02:21;44.85;;;42.25;;
46282;SDS011;32017;43.700;11.820;2024-02-21T03:04:22;45.00;;;42.30;;
46282;SDS011;32017;43.700;11.820;2024-02-21T03:06:24;42.55;;;40.03;;
46282;SDS011;32017;43.700;11.820;2024-02-21T03:08:26;44.33;;;41.70;;
46282;SDS011;32017;43.700;11.820;2024-02-21T03:10:28;45.90;;;42.97;;
46282;SDS011;32017;43.700;11.820;2024-02-21T03:12:30;46.58;;;43.85;;
46282;SDS011;32017;43.700;11.820;2024-02-21T03:14:32;45.30;;;43.00;;
46282;SDS011;32017;43.700;11.820;2024-02-21T03:16:34;46.22;;;43.45;;
46282;SDS011;32017;43.700;11.820;2024-02-21T03:18:35;44.28;;;41.97;;
46282;SDS011;32017;43.700;11.820;2024-02-21T03:20:37;46.27;;;43.67;;
46282;SDS011;32017;43.700;11.820;2024-02-21T03:22:39;47.27;;;44.43;;
46282;SDS011;32017;43.700;11.820;2024-02-21T03:24:41;44.08;;;41.42;;
46282;SDS011;32017;43.700;11.820;2024-02-21T03:26:44;47.50;;;44.58;;
46282;SDS011;32017;43.700;11.820;2024-02-21T03:28:45;45.28;;;43.10;;
46282;SDS011;32017;43.700;11.820;2024-02-21T03:30:48;46.05;;;43.70;;
46282;SDS011;32017;43.700;11.820;2024-02-21T03:32:50;44.45;;;42.15;;
46282;SDS011;32017;43.700;11.820;2024-02-21T03:34:52;46.03;;;43.78;;
46282;SDS011;32017;43.700;11.820;2024-02-21T03:36:54;44.90;;;42.90;;
46282;SDS011;32017;43.700;11.820;2024-02-21T03:38:56;44.07;;;41.70;;
46282;SDS011;32017;43.700;11.820;2024-02-21T03:40:57;43.13;;;40.87;;
46282;SDS011;32017;43.700;11.820;2024-02-21T03:42:59;39.47;;;38.07;;
46282;SDS011;32017;43.700;11.820;2024-02-21T03:45:01;41.33;;;39.83;;
46282;SDS011;32017;43.700;11.820;2024-02-21T03:47:03;40.33;;;38.67;;
46282;SDS011;32017;43.700;11.820;2024-02-21T03:49:04;39.30;;;37.67;;
46282;SDS011;32017;43.700;11.820;2024-02-21T03:51:06;40.50;;;38.80;;
46282;SDS011;32017;43.700;11.820;2024-02-21T03:53:08;37.25;;;35.92;;
46282;SDS011;32017;43.700;11.820;2024-02-21T03:57:12;37.70;;;36.10;;
46282;SDS011;32017;43.700;11.820;2024-02-21T03:59:14;43.35;;;41.40;;
46282;SDS011;32017;43.700;11.820;2024-02-21T04:01:15;41.10;;;39.30;;
46282;SDS011;32017;43.700;11.820;2024-02-21T04:03:17;38.92;;;37.33;;
46282;SDS011;32017;43.700;11.820;2024-02-21T04:05:19;44.53;;;41.63;;
46282;SDS011;32017;43.700;11.820;2024-02-21T04:07:21;49.67;;;46.38;;
46282;SDS011;32017;43.700;11.820;2024-02-21T04:09:23;51.47;;;47.63;;
46282;SDS011;32017;43.700;11.820;2024-02-21T04:11:25;47.37;;;44.67;;
46282;SDS011;32017;43.700;11.820;2024-02-21T04:13:26;49.17;;;46.53;;
46282;SDS011;32017;43.700;11.820;2024-02-21T04:15:28;49.03;;;46.00;;
46282;SDS011;32017;43.700;11.820;2024-02-21T04:17:30;50.70;;;47.70;;
46282;SDS011;32017;43.700;11.820;2024-02-21T04:19:32;48.88;;;46.10;;
46282;SDS011;32017;43.700;11.820;2024-02-21T04:21:35;45.80;;;43.30;;
46282;SDS011;32017;43.700;11.820;2024-02-21T04:23:37;43.92;;;41.47;;
46282;SDS011;32017;43.700;11.820;2024-02-21T04:25:39;45.50;;;43.55;;
46282;SDS011;32017;43.700;11.820;2024-02-21T04:27:40;45.95;;;43.92;;
46282;SDS011;32017;43.700;11.820;2024-02-21T04:29:43;41.58;;;39.60;;
46282;SDS011;32017;43.700;11.820;2024-02-21T04:31:45;43.95;;;41.88;;
46282;SDS011;32017;43.700;11.820;2024-02-21T04:33:46;42.85;;;40.65;;
46282;SDS011;32017;43.700;11.820;2024-02-21T04:35:48;41.88;;;40.22;;
46282;SDS011;32017;43.700;11.820;2024-02-21T04:37:50;42.92;;;41.03;;
46282;SDS011;32017;43.700;11.820;2024-02-21T04:39:52;42.72;;;40.33;;
46282;SDS011;32017;43.700;11.820;2024-02-21T04:41:53;45.20;;;42.47;;
46282;SDS011;32017;43.700;11.820;2024-02-21T04:43:55;45.50;;;43.08;;
46282;SDS011;32017;43.700;11.820;2024-02-21T04:45:57;44.85;;;42.92;;
46282;SDS011;32017;43.700;11.820;2024-02-21T04:47:59;46.95;;;44.33;;
46282;SDS011;32017;43.700;11.820;2024-02-21T04:50:00;43.65;;;41.65;;
46282;SDS011;32017;43.700;11.820;2024-02-21T04:52:02;43.22;;;41.22;;
46282;SDS011;32017;43.700;11.820;2024-02-21T04:54:04;42.70;;;40.33;;
46282;SDS011;32017;43.700;11.820;2024-02-21T04:56:06;45.30;;;43.10;;
46282;SDS011;32017;43.700;11.820;2024-02-21T04:58:07;41.78;;;39.97;;
46282;SDS011;32017;43.700;11.820;2024-02-21T05:00:09;43.80;;;41.70;;
46282;SDS011;32017;43.700;11.820;2024-02-21T05:04:15;48.22;;;45.85;;
46282;SDS011;32017;43.700;11.820;2024-02-21T05:06:17;46.70;;;44.50;;
46282;SDS011;32017;43.700;11.820;2024-02-21T05:08:19;47.03;;;44.40;;
46282;SDS011;32017;43.700;11.820;2024-02-21T05:10:20;45.95;;;43.50;;
46282;SDS011;32017;43.700;11.820;2024-02-21T05:12:22;43.63;;;41.95;;
46282;SDS011;32017;43.700;11.820;2024-02-21T05:14:24;44.03;;;41.80;;
46282;SDS011;32017;43.700;11.820;2024-02-21T05:16:26;42.28;;;40.55;;
46282;SDS011;32017;43.700;11.820;2024-02-21T05:18:28;45.13;;;42.93;;
46282;SDS011;32017;43.700;11.820;2024-02-21T05:20:30;44.47;;;42.10;;
46282;SDS011;32017;43.700;11.820;2024-02-21T05:22:32;44.80;;;42.40;;
46282;SDS011;32017;43.700;11.820;2024-02-21T05:24:33;52.17;;;48.67;;
46282;SDS011;32017;43.700;11.820;2024-02-21T05:26:35;47.85;;;45.28;;
46282;SDS011;32017;43.700;11.820;2024-02-21T05:28:37;47.03;;;44.33;;
46282;SDS011;32017;43.700;11.820;2024-02-21T05:30:38;47.05;;;43.97;;
46282;SDS011;32017;43.700;11.820;2024-02-21T05:32:42;50.80;;;47.70;;
46282;SDS011;32017;43.700;11.820;2024-02-21T05:34:44;52.63;;;48.65;;
46282;SDS011;32017;43.700;11.820;2024-02-21T05:36:46;49.50;;;46.13;;
46282;SDS011;32017;43.700;11.820;2024-02-21T05:38:47;51.40;;;47.83;;
46282;SDS011;32017;43.700;11.820;2024-02-21T05:40:49;49.23;;;45.83;;
46282;SDS011;32017;43.700;11.820;2024-02-21T05:42:51;53.17;;;48.95;;
46282;SDS011;32017;43.700;11.820;2024-02-21T05:44:53;53.92;;;50.55;;
46282;SDS011;32017;43.700;11.820;2024-02-21T05:46:55;51.10;;;47.57;;
46282;SDS011;32017;43.700;11.820;2024-02-21T05:48:56;47.45;;;43.78;;
46282;SDS011;32017;43.700;11.820;2024-02-21T05:50:58;51.67;;;48.42;;
46282;SDS011;32017;43.700;11.820;2024-02-21T05:53:02;51.38;;;48.17;;
46282;SDS011;32017;43.700;11.820;2024-02-21T05:55:06;48.83;;;45.88;;
46282;SDS011;32017;43.700;11.820;2024-02-21T05:57:08;48.58;;;45.92;;
46282;SDS011;32017;43.700;11.820;2024-02-21T05:59:10;51.33;;;48.22;;
46282;SDS011;32017;43.700;11.820;2024-02-21T06:01:11;51.83;;;47.97;;
46282;SDS011;32017;43.700;11.820;2024-02-21T06:03:13;48.83;;;45.87;;
46282;SDS011;32017;43.700;11.820;2024-02-21T06:05:15;51.22;;;47.92;;
46282;SDS011;32017;43.700;11.820;2024-02-21T06:07:17;47.53;;;45.03;;
46282;SDS011;32017;43.700;11.820;2024-02-21T06:09:19;45.90;;;43.50;;
46282;SDS011;32017;43.700;11.820;2024-02-21T06:11:21;49.38;;;45.95;;
46282;SDS011;32017;43.700;11.820;2024-02-21T06:13:25;46.42;;;43.10;;
46282;SDS011;32017;43.700;11.820;2024-02-21T06:15:27;56.10;;;51.85;;
46282;SDS011;32017;43.700;11.820;2024-02-21T06:17:29;49.33;;;46.17;;
46282;SDS011;32017;43.700;11.820;2024-02-21T06:19:31;52.85;;;49.20;;
46282;SDS011;32017;43.700;11.820;2024-02-21T06:21:33;51.28;;;47.63;;
46282;SDS011;32017;43.700;11.820;2024-02-21T06:23:36;50.30;;;46.70;;
46282;SDS011;32017;43.700;11.820;2024-02-21T06:25:38;44.13;;;41.20;;
46282;SDS011;32017;43.700;11.820;2024-02-21T06:27:40;50.38;;;47.53;;
46282;SDS011;32017;43.700;11.820;2024-02-21T06:29:42;42.85;;;40.35;;
46282;SDS011;32017;43.700;11.820;2024-02-21T06:31:43;75.63;;;66.07;;
46282;SDS011;32017;43.700;11.820;2024-02-21T06:33:45;56.43;;;52.30;;
46282;SDS011;32017;43.700;11.820;2024-02-21T06:35:47;53.13;;;48.57;;
46282;SDS011;32017;43.700;11.820;2024-02-21T06:37:49;53.90;;;50.22;;
46282;SDS011;32017;43.700;11.820;2024-02-21T06:39:52;48.40;;;45.53;;
46282;SDS011;32017;43.700;11.820;2024-02-21T06:41:54;46.67;;;43.65;;
46282;SDS011;32017;43.700;11.820;2024-02-21T06:43:59;48.47;;;45.80;;
46282;SDS011;32017;43.700;11.820;2024-02-21T06:46:01;48.40;;;45.45;;
46282;SDS011;32017;43.700;11.820;2024-02-21T06:48:03;45.78;;;43.22;;
46282;SDS011;32017;43.700;11.820;2024-02-21T06:50:05;45.55;;;43.45;;
46282;SDS011;32017;43.700;11.820;2024-02-21T06:52:07;49.47;;;47.08;;
46282;SDS011;32017;43.700;11.820;2024-02-21T06:54:09;51.60;;;48.80;;
46282;SDS011;32017;43.700;11.820;2024-02-21T06:56:11;45.60;;;43.17;;
46282;SDS011;32017;43.700;11.820;2024-02-21T06:58:13;42.22;;;40.53;;
46282;SDS011;32017;43.700;11.820;2024-02-21T07:00:15;43.40;;;41.47;;
46282;SDS011;32017;43.700;11.820;2024-02-21T07:02:17;44.00;;;42.00;;
46282;SDS011;32017;43.700;11.820;2024-02-21T07:04:19;42.40;;;40.50;;
46282;SDS011;32017;43.700;11.820;2024-02-21T07:06:20;39.15;;;37.75;;
46282;SDS011;32017;43.700;11.820;2024-02-21T07:08:22;42.13;;;40.35;;
46282;SDS011;32017;43.700;11.820;2024-02-21T07:10:24;40.58;;;39.10;;
46282;SDS011;32017;43.700;11.820;2024-02-21T07:12:25;39.90;;;38.40;;
46282;SDS011;32017;43.700;11.820;2024-02-21T07:14:32;38.58;;;36.90;;
46282;SDS011;32017;43.700;11.820;2024-02-21T07:16:33;43.38;;;41.20;;
46282;SDS011;32017;43.700;11.820;2024-02-21T07:18:35;45.95;;;43.50;;
46282;SDS011;32017;43.700;11.820;2024-02-21T07:20:37;40.47;;;38.63;;
46282;SDS011;32017;43.700;11.820;2024-02-21T07:22:38;43.90;;;42.07;;
46282;SDS011;32017;43.700;11.820;2024-02-21T07:24:40;39.00;;;37.47;;
46282;SDS011;32017;43.700;11.820;2024-02-21T07:26:42;40.58;;;38.75;;
46282;SDS011;32017;43.700;11.820;2024-02-21T07:28:47;47.38;;;44.88;;
46282;SDS011;32017;43.700;11.820;2024-02-21T07:30:48;46.92;;;44.28;;
46282;SDS011;32017;43.700;11.820;2024-02-21T07:32:50;66.65;;;60.47;;
46282;SDS011;32017;43.700;11.820;2024-02-21T07:34:52;59.65;;;54.67;;
46282;SDS011;32017;43.700;11.820;2024-02-21T07:36:54;46.10;;;43.30;;
46282;SDS011;32017;43.700;11.820;2024-02-21T07:38:56;45.47;;;42.60;;
46282;SDS011;32017;43.700;11.820;2024-02-21T07:40:57;40.22;;;37.90;;
46282;SDS011;32017;43.700;11.820;2024-02-21T07:42:59;40.07;;;38.17;;
46282;SDS011;32017;43.700;11.820;2024-02-21T07:45:01;38.83;;;36.87;;
46282;SDS011;32017;43.700;11.820;2024-02-21T07:47:04;36.47;;;34.90;;
46282;SDS011;32017;43.700;11.820;2024-02-21T07:49:08;37.45;;;36.00;;
46282;SDS011;32017;43.700;11.820;2024-02-21T07:51:10;41.08;;;38.92;;
46282;SDS011;32017;43.700;11.820;2024-02-21T07:53:12;41.37;;;38.47;;
46282;SDS011;32017;43.700;11.820;2024-02-21T07:55:13;43.83;;;40.47;;
46282;SDS011;32017;43.700;11.820;2024-02-21T07:57:15;41.80;;;39.17;;
46282;SDS011;32017;43.700;11.820;2024-02-21T07:59:17;35.97;;;34.33;;
46282;SDS011;32017;43.700;11.820;2024-02-21T08:01:19;35.47;;;34.05;;
46282;SDS011;32017;43.700;11.820;2024-02-21T08:03:22;36.22;;;34.38;;
46282;SDS011;32017;43.700;11.820;2024-02-21T08:05:24;37.75;;;36.22;;
46282;SDS011;32017;43.700;11.820;2024-02-21T08:07:26;40.63;;;38.47;;
46282;SDS011;32017;43.700;11.820;2024-02-21T08:09:30;36.63;;;34.85;;
46282;SDS011;32017;43.700;11.820;2024-02-21T08:11:32;39.73;;;37.73;;
46282;SDS011;32017;43.700;11.820;2024-02-21T08:13:34;37.83;;;35.97;;
46282;SDS011;32017;43.700;11.820;2024-02-21T08:15:36;37.27;;;35.43;;
46282;SDS011;32017;43.700;11.820;2024-02-21T08:17:40;35.58;;;34.03;;
46282;SDS011;32017;43.700;11.820;2024-02-21T08:19:42;35.33;;;33.53;;
46282;SDS011;32017;43.700;11.820;2024-02-21T08:21:44;39.37;;;37.27;;
46282;SDS011;32017;43.700;11.820;2024-02-21T08:23:50;37.80;;;35.83;;
46282;SDS011;32017;43.700;11.820;2024-02-21T08:25:53;42.55;;;40.20;;
46282;SDS011;32017;43.700;11.820;2024-02-21T08:27:57;39.57;;;37.57;;
46282;SDS011;32017;43.700;11.820;2024-02-21T08:29:58;38.17;;;36.08;;
46282;SDS011;32017;43.700;11.820;2024-02-21T08:32:00;38.25;;;36.25;;
46282;SDS011;32017;43.700;11.820;2024-02-21T08:34:02;38.85;;;37.15;;
46282;SDS011;32017;43.700;11.820;2024-02-21T08:36:05;41.60;;;38.97;;
46282;SDS011;32017;43.700;11.820;2024-02-21T08:38:07;42.40;;;38.88;;
46282;SDS011;32017;43.700;11.820;2024-02-21T08:40:09;44.67;;;41.20;;
46282;SDS011;32017;43.700;11.820;2024-02-21T08:42:11;46.60;;;43.22;;
46282;SDS011;32017;43.700;11.820;2024-02-21T08:44:14;45.05;;;41.35;;
46282;SDS011;32017;43.700;11.820;2024-02-21T08:46:16;42.03;;;39.07;;
46282;SDS011;32017;43.700;11.820;2024-02-21T08:48:19;42.93;;;39.83;;
46282;SDS011;32017;43.700;11.820;2024-02-21T08:50:21;45.90;;;42.15;;
46282;SDS011;32017;43.700;11.820;2024-02-21T08:52:29;46.28;;;42.45;;
46282;SDS011;32017;43.700;11.820;2024-02-21T08:54:31;45.92;;;42.50;;
46282;SDS011;32017;43.700;11.820;2024-02-21T08:56:34;43.60;;;39.92;;
46282;SDS011;32017;43.700;11.820;2024-02-21T08:58:36;43.05;;;39.65;;
46282;SDS011;32017;43.700;11.820;2024-02-21T09:00:38;45.03;;;41.40;;
46282;SDS011;32017;43.700;11.820;2024-02-21T09:02:40;39.22;;;36.70;;
46282;SDS011;32017;43.700;11.820;2024-02-21T09:04:42;38.75;;;36.65;;
46282;SDS011;32017;43.700;11.820;2024-02-21T09:06:45;38.72;;;36.58;;
46282;SDS011;32017;43.700;11.820;2024-02-21T09:10:49;32.92;;;31.27;;
46282;SDS011;32017;43.700;11.820;2024-02-21T09:12:51;34.20;;;32.42;;
46282;SDS011;32017;43.700;11.820;2024-02-21T09:14:53;32.77;;;30.93;;
46282;SDS011;32017;43.700;11.820;2024-02-21T09:16:55;33.67;;;32.25;;
46282;SDS011;32017;43.700;11.820;2024-02-21T09:20:59;30.05;;;28.70;;
46282;SDS011;32017;43.700;11.820;2024-02-21T09:23:01;28.75;;;27.65;;
46282;SDS011;32017;43.700;11.820;2024-02-21T09:25:03;32.60;;;31.13;;
46282;SDS011;32017;43.700;11.820;2024-02-21T09:29:07;29.30;;;28.13;;
46282;SDS011;32017;43.700;11.820;2024-02-21T09:31:09;26.80;;;25.90;;
46282;SDS011;32017;43.700;11.820;2024-02-21T09:33:11;26.90;;;26.13;;
46282;SDS011;32017;43.700;11.820;2024-02-21T09:35:23;26.98;;;26.05;;
46282;SDS011;32017;43.700;11.820;2024-02-21T09:37:25;28.60;;;27.70;;
46282;SDS011;32017;43.700;11.820;2024-02-21T09:39:26;28.87;;;27.67;;
46282;SDS011;32017;43.700;11.820;2024-02-21T09:41:28;27.53;;;26.67;;
46282;SDS011;32017;43.700;11.820;2024-02-21T09:43:30;25.03;;;24.03;;
46282;SDS011;32017;43.700;11.820;2024-02-21T09:45:33;26.42;;;25.45;;
46282;SDS011;32017;43.700;11.820;2024-02-21T09:47:40;25.70;;;24.65;;
46282;SDS011;32017;43.700;11.820;2024-02-21T09:49:45;22.23;;;21.63;;
46282;SDS011;32017;43.700;11.820;2024-02-21T09:51:47;24.35;;;23.10;;
46282;SDS011;32017;43.700;11.820;2024-02-21T09:53:51;20.42;;;19.60;;
46282;SDS011;32017;43.700;11.820;2024-02-21T09:56:07;21.00;;;20.45;;
46282;SDS011;32017;43.700;11.820;2024-02-21T09:58:12;19.67;;;18.85;;
46282;SDS011;32017;43.700;11.820;2024-02-21T10:00:14;19.08;;;18.35;;
46282;SDS011;32017;43.700;11.820;2024-02-21T10:02:23;16.27;;;15.65;;
46282;SDS011;32017;43.700;11.820;2024-02-21T10:04:25;14.73;;;14.10;;
46282;SDS011;32017;43.700;11.820;2024-02-21T10:06:27;13.23;;;12.93;;
46282;SDS011;32017;43.700;11.820;2024-02-21T10:08:29;11.23;;;10.57;;
46282;SDS011;32017;43.700;11.820;2024-02-21T10:10:40;9.73;;;9.00;;
46282;SDS011;32017;43.700;11.820;2024-02-21T10:12:49;9.27;;;8.95;;
46282;SDS011;32017;43.700;11.820;2024-02-21T10:15:04;10.13;;;9.48;;
46282;SDS011;32017;43.700;11.820;2024-02-21T10:17:06;9.45;;;9.10;;
46282;SDS011;32017;43.700;11.820;2024-02-21T10:19:20;6.85;;;6.53;;
46282;SDS011;32017;43.700;11.820;2024-02-21T10:21:22;8.18;;;7.78;;
46282;SDS011;32017;43.700;11.820;2024-02-21T10:23:24;7.97;;;7.77;;
46282;SDS011;32017;43.700;11.820;2024-02-21T10:25:25;8.00;;;7.57;;
46282;SDS011;32017;43.700;11.820;2024-02-21T10:27:27;8.43;;;8.23;;
46282;SDS011;32017;43.700;11.820;2024-02-21T10:29:30;6.28;;;5.78;;
46282;SDS011;32017;43.700;11.820;2024-02-21T10:31:31;7.05;;;6.63;;
46282;SDS011;32017;43.700;11.820;2024-02-21T10:33:34;3.42;;;3.33;;
46282;SDS011;32017;43.700;11.820;2024-02-21T10:35:36;4.07;;;3.97;;
46282;SDS011;32017;43.700;11.820;2024-02-21T10:37:38;3.30;;;3.10;;
46282;SDS011;32017;43.700;11.820;2024-02-21T10:39:40;2.83;;;2.83;;
46282;SDS011;32017;43.700;11.820;2024-02-21T10:41:42;3.08;;;2.97;;
46282;SDS011;32017;43.700;11.820;2024-02-21T10:43:46;3.05;;;2.75;;
46282;SDS011;32017;43.700;11.820;2024-02-21T10:45:49;2.70;;;2.53;;
46282;SDS011;32017;43.700;11.820;2024-02-21T10:47:51;2.63;;;2.60;;
46282;SDS011;32017;43.700;11.820;2024-02-21T10:50:02;4.18;;;2.30;;
46282;SDS011;32017;43.700;11.820;2024-02-21T10:56:44;2.33;;;2.30;;
46282;SDS011;32017;43.700;11.820;2024-02-21T10:58:46;2.27;;;2.27;;
46282;SDS011;32017;43.700;11.820;2024-02-21T11:00:48;2.30;;;2.30;;
46282;SDS011;32017;43.700;11.820;2024-02-21T11:02:50;2.70;;;2.40;;
46282;SDS011;32017;43.700;11.820;2024-02-21T11:04:53;2.42;;;2.25;;
46282;SDS011;32017;43.700;11.820;2024-02-21T11:06:56;2.45;;;2.45;;
46282;SDS011;32017;43.700;11.820;2024-02-21T11:09:05;2.08;;;2.08;;
46282;SDS011;32017;43.700;11.820;2024-02-21T11:11:06;1.92;;;1.92;;
46282;SDS011;32017;43.700;11.820;2024-02-21T11:13:12;1.83;;;1.83;;
46282;SDS011;32017;43.700;11.820;2024-02-21T11:15:15;1.40;;;1.40;;
46282;SDS011;32017;43.700;11.820;2024-02-21T11:17:18;1.63;;;1.63;;
46282;SDS011;32017;43.700;11.820;2024-02-21T11:19:20;1.50;;;1.50;;
46282;SDS011;32017;43.700;11.820;2024-02-21T11:21:32;1.40;;;1.30;;
46282;SDS011;32017;43.700;11.820;2024-02-21T11:23:34;1.20;;;1.10;;
46282;SDS011;32017;43.700;11.820;2024-02-21T11:25:36;1.43;;;1.43;;
46282;SDS011;32017;43.700;11.820;2024-02-21T11:27:38;1.30;;;1.30;;
46282;SDS011;32017;43.700;11.820;2024-02-21T11:29:43;1.30;;;1.30;;
46282;SDS011;32017;43.700;11.820;2024-02-21T11:31:45;1.27;;;1.27;;
46282;SDS011;32017;43.700;11.820;2024-02-21T11:33:49;1.30;;;1.30;;
46282;SDS011;32017;43.700;11.820;2024-02-21T11:35:52;1.40;;;1.30;;
46282;SDS011;32017;43.700;11.820;2024-02-21T11:37:54;1.40;;;1.40;;
46282;SDS011;32017;43.700;11.820;2024-02-21T11:39:56;1.50;;;1.50;;
46282;SDS011;32017;43.700;11.820;2024-02-21T11:42:01;1.10;;;1.10;;
46282;SDS011;32017;43.700;11.820;2024-02-21T11:44:03;4.03;;;3.40;;
46282;SDS011;32017;43.700;11.820;2024-02-21T11:46:05;1.55;;;1.55;;
46282;SDS011;32017;43.700;11.820;2024-02-21T11:48:07;2.58;;;1.30;;
46282;SDS011;32017;43.700;11.820;2024-02-21T11:50:12;1.40;;;1.40;;
46282;SDS011;32017;43.700;11.820;2024-02-21T11:52:17;2.67;;;2.58;;
46282;SDS011;32017;43.700;11.820;2024-02-21T11:54:20;1.25;;;1.25;;
46282;SDS011;32017;43.700;11.820;2024-02-21T11:56:22;1.20;;;1.20;;
46282;SDS011;32017;43.700;11.820;2024-02-21T11:58:24;1.45;;;1.45;;
46282;SDS011;32017;43.700;11.820;2024-02-21T12:00:26;1.10;;;1.10;;
46282;SDS011;32017;43.700;11.820;2024-02-21T12:02:28;1.00;;;1.00;;
46282;SDS011;32017;43.700;11.820;2024-02-21T12:04:30;1.10;;;1.10;;
46282;SDS011;32017;43.700;11.820;2024-02-21T12:06:32;1.45;;;1.45;;
46282;SDS011;32017;43.700;11.820;2024-02-21T12:08:43;1.13;;;1.13;;
46282;SDS011;32017;43.700;11.820;2024-02-21T12:10:45;1.00;;;1.00;;
46282;SDS011;32017;43.700;11.820;2024-02-21T12:12:52;1.80;;;1.80;;
46282;SDS011;32017;43.700;11.820;2024-02-21T12:14:56;1.27;;;1.27;;